createdAt,value
2016-06-09T00:00:12.577Z,14.9
2016-06-09T00:03:25.198Z,14.8
2016-06-09T00:06:43.442Z,14.8
2016-06-09T00:09:46.873Z,14.8
2016-06-09T00:12:59.647Z,14.7
2016-06-09T00:16:12.906Z,14.7
2016-06-09T00:19:26.341Z,14.6
2016-06-09T00:22:44.381Z,14.6
2016-06-09T00:25:48.015Z,14.7
2016-06-09T00:29:01.432Z,14.7
2016-06-09T00:32:14.425Z,14.7
2016-06-09T00:35:27.907Z,14.7
2016-06-09T00:38:42.806Z,14.7
2016-06-09T00:41:51.284Z,14.8
2016-06-09T00:44:54.949Z,14.8
2016-06-09T00:48:08.083Z,14.8
2016-06-09T00:51:20.956Z,14.7
2016-06-09T00:54:33.855Z,14.7
2016-06-09T00:57:46.599Z,14.7
2016-06-09T01:00:59.764Z,14.7
2016-06-09T01:04:12.695Z,14.7
2016-06-09T01:07:25.254Z,14.8
2016-06-09T01:10:42.342Z,14.8
2016-06-09T01:13:50.804Z,14.8
2016-06-09T01:16:54.235Z,14.8
2016-06-09T01:20:06.994Z,14.8
2016-06-09T01:23:20.068Z,14.7
2016-06-09T01:26:30.407Z,14.7
2016-06-09T01:29:48.760Z,14.7
2016-06-09T01:32:52.393Z,14.6
2016-06-09T01:36:05.277Z,14.6
2016-06-09T01:39:18.381Z,14.5
2016-06-09T01:42:31.424Z,14.5
2016-06-09T01:45:49.700Z,14.4
2016-06-09T01:48:53.803Z,14.3
2016-06-09T01:52:06.484Z,14.3
2016-06-09T01:55:19.554Z,14.2
2016-06-09T01:58:32.395Z,14.1
2016-06-09T02:01:50.279Z,14.1
2016-06-09T02:04:53.899Z,14
2016-06-09T02:08:07.142Z,14
2016-06-09T02:11:20.495Z,14
2016-06-09T02:14:31.600Z,14.1
2016-06-09T02:17:52.220Z,14.1
2016-06-09T02:20:55.744Z,14.1
2016-06-09T02:24:08.941Z,14
2016-06-09T02:27:20.294Z,14
2016-06-09T02:30:35.869Z,14.1
2016-06-09T02:33:49.441Z,14.1
2016-06-09T02:37:02.856Z,14.1
2016-06-09T02:40:14.459Z,14.1
2016-06-09T02:43:27.564Z,14.1
2016-06-09T02:46:46.012Z,14.1
2016-06-09T02:49:49.458Z,14
2016-06-09T02:53:02.671Z,14
2016-06-09T02:56:15.743Z,14
2016-06-09T02:59:29.161Z,14
2016-06-09T03:02:47.389Z,13.9
2016-06-09T03:05:50.962Z,13.9
2016-06-09T03:09:04.049Z,13.9
2016-06-09T03:12:17.480Z,13.9
2016-06-09T03:15:27.257Z,13.9
2016-06-09T03:18:45.438Z,13.9
2016-06-09T03:21:53.900Z,13.9
2016-06-09T03:24:57.315Z,13.9
2016-06-09T03:28:10.590Z,13.9
2016-06-09T03:31:23.884Z,13.9
2016-06-09T03:34:35.143Z,13.9
2016-06-09T03:37:50.324Z,13.9
2016-06-09T03:41:03.694Z,13.9
2016-06-09T03:44:16.890Z,13.9
2016-06-09T03:47:30.090Z,13.9
2016-06-09T03:50:47.927Z,13.9
2016-06-09T03:53:51.249Z,13.8
2016-06-09T03:57:04.477Z,13.9
2016-06-09T04:00:17.767Z,13.9
2016-06-09T04:03:31.015Z,14
2016-06-09T04:06:47.836Z,13.9
2016-06-09T04:09:51.158Z,14
2016-06-09T04:13:04.307Z,14
2016-06-09T04:16:17.270Z,14
2016-06-09T04:19:30.439Z,14.1
2016-06-09T04:22:48.713Z,14.1
2016-06-09T04:25:52.175Z,14.1
2016-06-09T04:29:05.434Z,14.1
2016-06-09T04:32:18.632Z,14.1
2016-06-09T04:35:31.893Z,14.1
2016-06-09T04:38:50.325Z,14.2
2016-06-09T04:41:53.693Z,14.2
2016-06-09T04:45:06.155Z,14.1
2016-06-09T04:48:18.931Z,14.2
2016-06-09T04:51:32.193Z,14.3
2016-06-09T04:54:50.421Z,14.3
2016-06-09T04:57:53.759Z,14.3
2016-06-09T05:01:04.643Z,14.3
2016-06-09T05:04:19.605Z,14.3
2016-06-09T05:07:32.820Z,14.3
2016-06-09T05:10:51.345Z,14.5
2016-06-09T05:13:54.744Z,14.6
2016-06-09T05:17:07.473Z,14.7
2016-06-09T05:20:17.123Z,14.8
2016-06-09T05:23:30.666Z,14.9
2016-06-09T05:26:49.926Z,15.1
2016-06-09T05:29:54.372Z,15.2
2016-06-09T05:33:08.631Z,15.2
2016-06-09T05:36:22.266Z,15.2
2016-06-09T05:39:36.294Z,15.5
2016-06-09T05:42:50.490Z,15.9
2016-06-09T05:46:04.842Z,16.4
2016-06-09T05:49:19.196Z,16.7
2016-06-09T05:52:33.411Z,16.8
2016-06-09T05:55:52.140Z,17.1
2016-06-09T05:58:56.868Z,17.5
2016-06-09T06:02:11.393Z,17.7
2016-06-09T06:05:25.667Z,17.9
2016-06-09T06:08:40.007Z,17.9
2016-06-09T06:11:50.954Z,17.6
2016-06-09T06:15:05.167Z,17.3
2016-06-09T06:18:19.566Z,17.3
2016-06-09T06:21:33.532Z,17.1
2016-06-09T06:24:52.385Z,17.1
2016-06-09T06:27:57.144Z,17.3
2016-06-09T06:31:08.841Z,17.4
2016-06-09T06:34:22.913Z,17.2
2016-06-09T06:37:37.003Z,17.1
2016-06-09T06:40:51.231Z,17.1
2016-06-09T06:44:05.413Z,17
2016-06-09T06:47:19.593Z,16.9
2016-06-09T06:50:33.778Z,16.7
2016-06-09T06:53:52.865Z,16.6
2016-06-09T06:56:57.249Z,16.5
2016-06-09T07:00:11.290Z,16.4
2016-06-09T07:03:27.268Z,16.3
2016-06-09T07:06:36.889Z,16.3
2016-06-09T07:09:50.836Z,16.3
2016-06-09T07:13:05.298Z,16.4
2016-06-09T07:16:19.744Z,16.4
2016-06-09T07:19:34.351Z,16.5
2016-06-09T07:22:51.751Z,16.7
2016-06-09T07:25:56.651Z,17
2016-06-09T07:29:11.425Z,17.3
2016-06-09T07:32:26.560Z,18.2
2016-06-09T07:35:46.541Z,18.9
2016-06-09T07:38:51.831Z,19.2
2016-06-09T07:42:06.496Z,19.3
2016-06-09T07:45:20.897Z,19.2
2016-06-09T07:48:35.206Z,18.8
2016-06-09T07:51:54.809Z,18.7
2016-06-09T07:54:59.755Z,18.6
2016-06-09T07:58:14.296Z,19.4
2016-06-09T08:01:27.039Z,19.4
2016-06-09T08:04:48.114Z,19.2
2016-06-09T08:07:52.405Z,18.8
2016-06-09T08:11:05.242Z,18.4
2016-06-09T08:14:17.517Z,18.3
2016-06-09T08:17:31.979Z,18.2
2016-06-09T08:20:50.913Z,18.3
2016-06-09T08:23:55.735Z,18.6
2016-06-09T08:27:10.363Z,18.8
2016-06-09T08:30:23.296Z,19.1
2016-06-09T08:33:37.853Z,19.2
2016-06-09T08:36:51.920Z,19.2
2016-06-09T08:40:05.975Z,19.2
2016-06-09T08:43:20.085Z,19.4
2016-06-09T08:46:34.051Z,19.4
2016-06-09T08:49:53.083Z,19.4
2016-06-09T08:52:57.734Z,19.3
2016-06-09T08:56:12.073Z,19.1
2016-06-09T08:59:24.238Z,19.1
2016-06-09T09:02:38.671Z,19.2
2016-06-09T09:05:53.368Z,19.3
2016-06-09T09:09:07.502Z,19.6
2016-06-09T09:12:20.449Z,19.7
2016-06-09T09:15:34.896Z,19.7
2016-06-09T09:18:54.690Z,20.2
2016-06-09T09:22:00.761Z,22.1
2016-06-09T09:25:16.520Z,23.5
2016-06-09T09:28:32.280Z,24.4
2016-06-09T09:31:53.072Z,25.4
2016-06-09T09:34:59.223Z,25.1
2016-06-09T09:38:13.686Z,24.7
2016-06-09T09:41:27.100Z,24.4
2016-06-09T09:44:37.488Z,24
2016-06-09T09:47:56.356Z,23.2
2016-06-09T09:51:00.773Z,22.6
2016-06-09T09:54:14.593Z,21.8
2016-06-09T09:57:28.212Z,21.3
2016-06-09T10:00:41.553Z,20.8
2016-06-09T10:03:55.203Z,20.6
2016-06-09T10:07:09.055Z,20.6
2016-06-09T10:10:23.533Z,20.6
2016-06-09T10:13:37.840Z,20.5
2016-06-09T10:16:55.539Z,20.3
2016-06-09T10:20:00.345Z,20.2
2016-06-09T10:23:14.449Z,20.1
2016-06-09T10:26:28.535Z,20.1
2016-06-09T10:29:47.798Z,20.2
2016-06-09T10:32:52.588Z,20.3
2016-06-09T10:36:06.880Z,20.3
2016-06-09T10:39:19.935Z,20.3
2016-06-09T10:42:32.038Z,20.2
2016-06-09T10:45:52.833Z,20.1
2016-06-09T10:48:55.138Z,20.2
2016-06-09T10:52:11.397Z,20.1
2016-06-09T10:55:25.046Z,20.1
2016-06-09T10:58:39.244Z,20.1
2016-06-09T11:02:01.069Z,20.2
2016-06-09T11:05:07.484Z,20.3
2016-06-09T11:08:21.587Z,20.4
2016-06-09T11:11:35.830Z,20.6
2016-06-09T11:14:54.983Z,20.7
2016-06-09T11:18:00.117Z,20.7
2016-06-09T11:21:14.736Z,20.9
2016-06-09T11:24:29.605Z,21
2016-06-09T11:27:49.352Z,21.1
2016-06-09T11:30:54.001Z,21.1
2016-06-09T11:34:07.245Z,21
2016-06-09T11:37:21.582Z,20.8
2016-06-09T11:40:32.748Z,20.6
2016-06-09T11:43:51.604Z,20.6
2016-06-09T11:46:56.582Z,20.6
2016-06-09T11:50:10.544Z,20.7
2016-06-09T11:53:24.538Z,20.6
2016-06-09T11:56:38.798Z,20.5
2016-06-09T11:59:52.590Z,20.6
2016-06-09T12:03:04.397Z,20.7
2016-06-09T12:06:18.078Z,20.7
2016-06-09T12:09:30.352Z,20.7
2016-06-09T12:12:51.724Z,20.8
2016-06-09T12:15:56.390Z,20.7
2016-06-09T12:19:10.321Z,20.7
2016-06-09T12:22:25.189Z,20.8
2016-06-09T12:25:39.979Z,20.8
2016-06-09T12:28:54.555Z,20.7
2016-06-09T12:32:09.251Z,20.6
2016-06-09T12:35:22.885Z,20.6
2016-06-09T12:38:37.364Z,20.6
2016-06-09T12:41:56.439Z,20.5
2016-06-09T12:45:00.526Z,20.5
2016-06-09T12:48:14.613Z,20.4
2016-06-09T12:51:26.748Z,20.2
2016-06-09T12:54:39.100Z,20.1
2016-06-09T12:57:53.878Z,20
2016-06-09T13:01:08.278Z,19.9
2016-06-09T13:04:22.881Z,19.9
2016-06-09T13:07:37.375Z,19.9
2016-06-09T13:10:54.481Z,20
2016-06-09T13:13:59.255Z,20.1
2016-06-09T13:17:13.311Z,20.2
2016-06-09T13:20:27.962Z,20.3
2016-06-09T13:23:40.532Z,20.4
2016-06-09T13:26:57.186Z,20.5
2016-06-09T13:30:11.446Z,20.6
2016-06-09T13:33:25.313Z,20.7
2016-06-09T13:36:39.448Z,20.7
2016-06-09T13:39:53.523Z,20.7
2016-06-09T13:43:07.751Z,20.6
2016-06-09T13:46:21.886Z,20.4
2016-06-09T13:49:35.941Z,20.3
2016-06-09T13:52:54.891Z,20.3
2016-06-09T13:55:58.384Z,20.2
2016-06-09T13:59:11.738Z,20.2
2016-06-09T14:02:26.324Z,20.3
2016-06-09T14:05:40.584Z,20.1
2016-06-09T14:08:55.159Z,20.1
2016-06-09T14:12:09.558Z,20
2016-06-09T14:15:23.770Z,19.9
2016-06-09T14:18:37.187Z,19.9
2016-06-09T14:21:56.012Z,19.8
2016-06-09T14:25:00.598Z,19.8
2016-06-09T14:28:14.218Z,19.9
2016-06-09T14:31:28.617Z,20
2016-06-09T14:34:43.079Z,20.2
2016-06-09T14:37:57.780Z,20.3
2016-06-09T14:41:10.226Z,20.2
2016-06-09T14:44:25.922Z,20.2
2016-06-09T14:47:37.713Z,20.1
2016-06-09T14:50:53.460Z,20
2016-06-09T14:54:07.437Z,19.9
2016-06-09T14:57:21.260Z,19.9
2016-06-09T15:00:35.034Z,19.9
2016-06-09T15:03:54.203Z,19.8
2016-06-09T15:06:59.447Z,19.8
2016-06-09T15:10:11.769Z,19.8
2016-06-09T15:13:26.215Z,19.9
2016-06-09T15:16:38.538Z,19.9
2016-06-09T15:19:56.283Z,19.9
2016-06-09T15:23:00.902Z,20
2016-06-09T15:26:15.505Z,20
2016-06-09T15:29:29.983Z,20.1
2016-06-09T15:32:42.711Z,20.1
2016-06-09T15:35:56.926Z,20
2016-06-09T15:39:11.108Z,19.9
2016-06-09T15:42:23.398Z,19.9
2016-06-09T15:45:39.391Z,19.8
2016-06-09T15:48:53.950Z,19.7
2016-06-09T15:52:08.460Z,19.7
2016-06-09T15:55:23.250Z,19.7
2016-06-09T15:58:37.447Z,19.8
2016-06-09T16:01:57.241Z,19.8
2016-06-09T16:05:02.202Z,19.8
2016-06-09T16:08:16.759Z,19.9
2016-06-09T16:11:31.096Z,20
2016-06-09T16:14:50.402Z,20.1
2016-06-09T16:17:55.556Z,20.1
2016-06-09T16:21:10.377Z,20.1
2016-06-09T16:24:24.886Z,20.1
2016-06-09T16:27:39.755Z,20
2016-06-09T16:30:56.424Z,20.1
2016-06-09T16:34:01.589Z,20.1
2016-06-09T16:37:13.629Z,20
2016-06-09T16:40:25.748Z,19.9
2016-06-09T16:43:40.367Z,19.8
2016-06-09T16:46:55.098Z,19.6
2016-06-09T16:50:09.685Z,19.6
2016-06-09T16:53:22.711Z,19.5
2016-06-09T16:56:39.109Z,19.4
2016-06-09T16:59:53.790Z,19.3
2016-06-09T17:03:08.116Z,19.3
2016-06-09T17:06:22.781Z,19.3
2016-06-09T17:09:37.322Z,19.2
2016-06-09T17:12:56.552Z,19.2
2016-06-09T17:16:01.546Z,19.2
2016-06-09T17:19:16.009Z,19.1
2016-06-09T17:22:30.050Z,19.1
2016-06-09T17:25:43.839Z,19.1
2016-06-09T17:28:57.446Z,19.1
2016-06-09T17:32:11.086Z,19.1
2016-06-09T17:35:25.908Z,19
2016-06-09T17:38:40.092Z,19
2016-06-09T17:41:54.877Z,19
2016-06-09T17:45:09.146Z,19
2016-06-09T17:48:21.101Z,19
2016-06-09T17:51:35.835Z,19
2016-06-09T17:54:51.924Z,19
2016-06-09T17:57:57.095Z,19.1
2016-06-09T18:01:11.574Z,19
2016-06-09T18:04:26.411Z,18.9
2016-06-09T18:07:39.155Z,18.7
2016-06-09T18:10:58.745Z,18.5
2016-06-09T18:14:03.957Z,18.5
2016-06-09T18:17:16.466Z,18.3
2016-06-09T18:20:29.210Z,18.3
2016-06-09T18:23:44.063Z,18.2
2016-06-09T18:26:55.869Z,18.1
2016-06-09T18:30:10.631Z,18
2016-06-09T18:33:23.015Z,17.9
2016-06-09T18:36:39.743Z,17.9
2016-06-09T18:39:56.628Z,17.9
2016-06-09T18:46:11.243Z,17.9
2016-06-09T18:49:25.689Z,17.8
2016-06-09T18:52:39.887Z,17.8
2016-06-09T18:55:57.271Z,17.7
2016-06-09T18:59:02.002Z,17.7
2016-06-09T19:02:16.042Z,17.6
2016-06-09T19:05:30.036Z,17.6
2016-06-09T19:08:43.358Z,17.6
2016-06-09T19:11:56.914Z,17.5
2016-06-09T19:15:10.613Z,17.5
2016-06-09T19:18:23.795Z,17.4
2016-06-09T19:21:37.007Z,17.3
2016-06-09T19:24:52.360Z,17.2
2016-06-09T19:28:01.591Z,17.1
2016-06-09T19:31:05.818Z,17
2016-06-09T19:34:19.047Z,17
2016-06-09T19:37:32.587Z,17
2016-06-09T19:40:46.659Z,16.8
2016-06-09T19:43:59.012Z,16.8
2016-06-09T19:47:13.087Z,16.7
2016-06-09T19:50:26.721Z,16.7
2016-06-09T19:53:40.933Z,16.6
2016-06-09T19:56:59.489Z,16.6
2016-06-09T20:00:03.455Z,16.5
2016-06-09T20:03:17.448Z,16.4
2016-06-09T20:06:31.176Z,16.3
2016-06-09T20:09:42.389Z,16.3
2016-06-09T20:12:59.866Z,16.3
2016-06-09T20:16:04.067Z,16.2
2016-06-09T20:19:17.966Z,16.2
2016-06-09T20:22:28.554Z,16.2
2016-06-09T20:25:41.970Z,16.1
2016-06-09T20:29:00.759Z,16.1
2016-06-09T20:32:05.100Z,16
2016-06-09T20:35:18.828Z,15.9
2016-06-09T20:38:32.525Z,15.9
2016-06-09T20:41:45.738Z,15.8
2016-06-09T20:45:04.796Z,15.8
2016-06-09T20:48:09.196Z,15.8
2016-06-09T20:51:22.486Z,15.7
2016-06-09T20:54:36.261Z,15.6
2016-06-09T20:57:47.615Z,15.5
2016-06-09T21:01:05.158Z,15.4
2016-06-09T21:04:09.495Z,15.4
2016-06-09T21:07:23.427Z,15.4
2016-06-09T21:10:37.139Z,15.3
2016-06-09T21:13:50.898Z,15.2
2016-06-09T21:17:03.173Z,15.2
2016-06-09T21:20:16.778Z,15.1
2016-06-09T21:23:30.601Z,15.1
2016-06-09T21:26:43.704Z,15
2016-06-09T21:30:02.056Z,15
2016-06-09T21:33:06.193Z,14.9
2016-06-09T21:36:20.328Z,14.9
2016-06-09T21:39:34.322Z,14.9
2016-06-09T21:42:46.065Z,14.8
2016-06-09T21:46:04.762Z,14.8
2016-06-09T21:49:06.602Z,14.7
2016-06-09T21:52:22.221Z,14.7
2016-06-09T21:55:36.230Z,14.6
2016-06-09T21:58:50.364Z,14.6
2016-06-09T22:02:04.640Z,14.6
2016-06-09T22:05:18.480Z,14.6
2016-06-09T22:08:36.426Z,14.6
2016-06-09T22:11:46.201Z,14.6
2016-06-09T22:15:03.726Z,14.5
2016-06-09T22:18:08.473Z,14.5
2016-06-09T22:21:21.998Z,14.5
2016-06-09T22:24:36.350Z,14.5
2016-06-09T22:27:49.828Z,14.4
2016-06-09T22:31:10.357Z,14.4
2016-06-09T22:34:14.319Z,14.3
2016-06-09T22:37:28.859Z,14.3
2016-06-09T22:40:42.962Z,14.2
2016-06-09T22:44:01.206Z,14.1
2016-06-09T22:47:07.340Z,14.1
2016-06-09T22:50:21.743Z,14.1
2016-06-09T22:53:36.143Z,14.1
2016-06-09T22:56:49.043Z,14.1
2016-06-09T23:00:08.368Z,14
2016-06-09T23:03:13.486Z,14
2016-06-09T23:06:27.918Z,13.9
2016-06-09T23:09:41.863Z,13.9
2016-06-09T23:12:55.780Z,13.8
2016-06-09T23:16:09.792Z,13.8
2016-06-09T23:19:24.488Z,13.7
2016-06-09T23:22:39.153Z,13.7
2016-06-09T23:25:53.162Z,13.6
2016-06-09T23:29:11.254Z,13.6
2016-06-09T23:32:16.059Z,13.6
2016-06-09T23:35:30.007Z,13.5
2016-06-09T23:38:44.702Z,13.4
2016-06-09T23:42:02.791Z,13.4
2016-06-09T23:45:16.397Z,13.3
2016-06-09T23:48:21.375Z,13.1
2016-06-09T23:51:35.805Z,13.1
2016-06-09T23:54:49.831Z,13
2016-06-09T23:58:08.761Z,12.9
